LTBI

Eskişehir Air Base Airport

Turkey
TAF LTBI 211640Z 2118/2203 VRB02KT 9999 SCT040 SCT100 TEMPO 2118/2121 -SHRA BKN030
Issued Valid From Valid To
Jun-21 @ 16:40 UTC
(2 hours ago)
Jun-21 @ 18:00 UTC
(11 minutes ago)
Jun-22 @ 03:00 UTC
(in 9 hours)
Jun-21 @ 18:00 to Jun-22 @ 03:00
TAF LTBI 211640Z 2118/2203 VRB02KT 9999 SCT040 SCT100
Wind Visibility Clouds
Variable at 2 knots 10,000+ meters
  • Scattered at 4,000' AGL
  • Scattered at 10,000' AGL
Temporary Jun-21 @ 18:00 to Jun-21 @ 21:00
TEMPO 2118/2121 -SHRA BKN030
Clouds Conditions
  • Broken at 3,000' AGL
  • Light Rain
TAF LTBI 211640Z 2118/2203 VRB02KT 9999 SCT040 SCT100 TEMPO 2118/2121 -SHRA BKN030
Issued Jun-21 @ 16:40 UTC
(2 hours ago)
Valid From Jun-21 @ 18:00 UTC
(11 minutes ago)
Valid To Jun-22 @ 03:00 UTC
(in 9 hours)
Jun-21 @ 18:00 - Jun-22 @ 03:00
Wind Visibility
Variable at 2 knots 10,000+ meters
Clouds
  • Scattered at 4,000' AGL
  • Scattered at 10,000' AGL
Temporary Jun-21 @ 18:00 - Jun-21 @ 21:00
Clouds
  • Broken at 3,000' AGL
Conditions
  • Light Rain